SNLH weather

Lajinha Airport
Lajinha, Minas Gerais, Brazil

Public forecast

Using degrees Celsius for public forecast. Weather courtesy of forecast.io.

Closest aviation weather report (METAR) to Lajinha Airport

Report is more than 6 hours old.

Closest report is Baixo Guandu - AimorĂ©s Airport, 50.1 nm (92.8 km) NE. Retrieved 2009/08/07 03:52 UTC (11 years ago):

SNBG 070352Z 15004KT 10SM SCT150 26/22 A3002 ? =? SLP166 T02560222 $

Closest aviation forecast (TAF) to Lajinha Airport

Closest forecast is Eurico de Aguiar Salles Airport, 74.9 nm (138.7 km) E. Retrieved 2020-08-04 00:00 UTC (2 hours ago):

TAF SBVT 032100Z 0400/0424 22004KT 9999 SCT035 TN16/0409Z TX24/0416Z BECMG 0403/0405 30003KT SCT040 BECMG 0412/0414 21008KT FEW030 BECMG 0414/0416 16012KT BECMG 0418/0420 17009KT CAVOK BECMG 030422/0424 20005KT RMK PAY